Terminal Aerodrome Forecast
Issued by NWS Sioux Falls, SD

Home | Current Version | Previous Version | Graphics & Text | Print | Product List | Glossary On
Versions: 1 2 3 4 5 6 7 8 9 10 11 12 13 14 15 16 17
000
FTUS43 KFSD 302342
TAFFSD
TAF
KFSD 302342Z 3100/3124 19010KT P6SM SCT250
     FM310400 VRB04KT P6SM BKN250
     FM311300 05008KT P6SM OVC008
     FM311800 06012KT P6SM SCT008 OVC015
     FM312300 06015KT 3SM -SN SCT008 OVC015=

USA.gov is the U.S. government's official web portal to all federal, state and local government web resources and services.